Time;durP1;ratioP1;P1;durP2;ratioP2;P2;SDS_P1;SDS_P2;PMS_P1;PMS_P2;Temp;Humidity;BMP_temperature;BMP_pressure;BME280_temperature;BME280_humidity;BME280_pressure;Samples;Min_cycle;Max_cycle;Signal;HPM_P1;HPM_P2
2022/08/20 00:00:52;;;;;;;6.20;2.60;;;;;;;32.00;40.45;101616.38;5090641;28;20029;-76
2022/08/20 00:03:28;;;;;;;6.30;2.50;;;;;;;32.11;40.04;101613.59;5072206;28;20024;-76
2022/08/20 00:06:00;;;;;;;5.18;2.28;;;;;;;31.78;40.47;101621.00;5053667;28;20036;-77
2022/08/20 00:08:26;;;;;;;;;;;;;;;32.12;40.31;101620.69;5073177;28;20088;-77
2022/08/20 00:10:52;;;;;;;4.95;2.40;;;;;;;32.10;40.39;101617.28;5057178;28;19977;-77
2022/08/20 00:13:31;;;;;;;6.10;2.40;;;;;;;31.58;40.72;101618.16;5054105;28;20025;-77
2022/08/20 00:15:56;;;;;;;4.38;2.25;;;;;;;32.12;40.36;101620.69;5078425;28;20581;-77
2022/08/20 00:18:22;;;;;;;3.78;1.88;;;;;;;32.32;40.38;101618.09;5068613;28;20040;-77
2022/08/20 00:20:51;;;;;;;6.68;2.35;;;;;;;32.03;40.05;101622.38;5056013;28;20111;-77
2022/08/20 00:23:18;;;;;;;5.15;2.33;;;;;;;32.24;39.70;101619.63;5054069;28;20024;-77
2022/08/20 00:25:44;;;;;;;3.83;2.20;;;;;;;32.15;39.40;101623.16;5052700;28;20021;-77
2022/08/20 00:28:11;;;;;;;3.35;2.33;;;;;;;32.33;40.12;101622.47;5061345;28;20092;-77
2022/08/20 00:30:39;;;;;;;6.40;2.45;;;;;;;32.43;39.50;101617.97;5056779;28;20102;-77
2022/08/20 00:33:07;;;;;;;4.63;2.47;;;;;;;32.51;38.93;101620.81;5070929;28;20040;-77
2022/08/20 00:35:36;;;;;;;7.10;3.13;;;;;;;32.87;38.53;101614.88;5053807;28;20414;-77
2022/08/20 00:38:01;;;;;;;5.53;2.63;;;;;;;31.11;41.42;101631.25;5077824;28;20063;-77
2022/08/20 00:40:40;;;;;;;7.13;2.42;;;;;;;31.72;41.13;101621.53;5090235;28;20066;-77
2022/08/20 00:43:22;;;;;;;5.72;2.55;;;;;;;31.83;40.54;101624.13;5077843;28;20119;-77
2022/08/20 00:45:47;;;;;;;3.53;2.33;;;;;;;31.12;42.02;101627.56;5057186;28;20043;-77
2022/08/20 00:48:12;;;;;;;5.57;2.20;;;;;;;31.87;40.72;101627.44;5058073;28;20055;-77
2022/08/20 00:50:38;;;;;;;5.22;2.40;;;;;;;31.09;41.74;101620.59;5086788;28;20027;-78
2022/08/20 00:53:07;;;;;;;4.32;2.38;;;;;;;30.89;42.31;101619.53;5076211;28;20078;-78
2022/08/20 00:55:34;;;;;;;4.65;2.80;;;;;;;31.19;41.43;101611.69;5076373;28;20031;-77
2022/08/20 00:58:06;;;;;;;9.30;4.38;;;;;;;30.32;43.65;101618.81;5065178;28;20025;-77
2022/08/20 01:00:34;;;;;;;12.32;5.22;;;;;;;29.77;44.79;101624.09;5057077;28;20131;-76
2022/08/20 01:03:00;;;;;;;9.90;5.20;;;;;;;29.41;45.96;101617.94;5070988;28;20029;-77
2022/08/20 01:05:26;;;;;;;10.73;6.28;;;;;;;29.35;46.19;101623.81;5069740;28;20035;-77
2022/08/20 01:07:53;;;;;;;14.02;6.13;;;;;;;30.25;43.77;101613.09;5056888;28;20379;-77
2022/08/20 01:10:28;;;;;;;12.55;6.90;;;;;;;30.78;43.04;101611.50;5075393;28;20036;-77
2022/08/20 01:12:57;;;;;;;10.85;6.90;;;;;;;30.06;44.01;101618.25;5056765;28;20028;-77
2022/08/20 01:15:28;;;;;;;14.07;7.47;;;;;;;29.29;44.77;101622.44;5074569;28;20024;-80
2022/08/20 01:17:59;;;;;;;13.48;7.45;;;;;;;29.40;45.27;101621.63;5077349;28;20479;-80
2022/08/20 01:20:29;;;;;;;16.60;7.57;;;;;;;29.91;43.66;101621.22;5063142;28;20029;-81
2022/08/20 01:25:59;;;;;;;17.15;7.80;;;;;;;29.90;44.03;101627.56;5073765;28;20086;-77
2022/08/20 01:28:54;;;;;;;16.15;7.75;;;;;;;29.63;44.25;101632.44;5072470;28;20028;-77
2022/08/20 01:31:23;;;;;;;13.15;6.65;;;;;;;29.43;44.22;101642.94;5056791;28;20024;-77
2022/08/20 01:33:50;;;;;;;17.27;7.40;;;;;;;30.02;43.56;101639.22;5056358;28;20033;-77
2022/08/20 01:36:19;;;;;;;13.02;6.95;;;;;;;30.23;42.89;101636.63;5072318;28;20035;-77
2022/08/20 01:38:46;;;;;;;11.23;7.28;;;;;;;29.38;44.77;101635.19;5077099;28;20020;-77
2022/08/20 01:41:34;;;;;;;11.45;7.00;;;;;;;29.94;43.90;101639.81;5093606;28;20027;-77
2022/08/20 01:43:59;;;;;;;10.20;7.30;;;;;;;29.77;43.96;101634.88;5069797;28;20144;-77
2022/08/20 01:46:28;;;;;;;15.65;6.97;;;;;;;29.35;44.71;101634.59;5062114;28;20103;-80
2022/08/20 01:48:55;;;;;;;12.25;6.65;;;;;;;29.82;44.10;101638.06;5053885;28;20028;-81
2022/08/20 01:51:28;;;;;;;10.13;5.88;;;;;;;29.57;44.45;101634.63;5053685;28;20047;-80
2022/08/20 01:53:55;;;;;;;13.30;6.50;;;;;;;30.06;42.85;101643.38;5060402;28;20033;-81
2022/08/20 01:56:24;;;;;;;10.52;6.07;;;;;;;29.66;43.24;101651.03;5072580;28;20910;-81
2022/08/20 01:58:53;;;;;;;9.13;5.50;;;;;;;29.84;43.19;101646.91;5056753;28;20024;-77
2022/08/20 02:01:24;;;;;;;10.63;5.53;;;;;;;30.40;41.44;101647.88;5064840;28;20025;-77
2022/08/20 02:03:51;;;;;;;11.23;5.55;;;;;;;29.91;42.49;101648.16;5050296;28;20029;-76
2022/08/20 02:06:17;;;;;;;12.25;5.80;;;;;;;29.69;42.97;101661.56;5047371;28;20123;-77
2022/08/20 02:08:43;;;;;;;12.57;5.75;;;;;;;29.19;44.06;101657.25;5074351;28;20035;-77
2022/08/20 02:11:09;;;;;;;11.82;5.43;;;;;;;29.03;44.95;101656.69;5055018;28;20392;-77
2022/08/20 02:13:35;;;;;;;12.82;5.53;;;;;;;29.90;42.67;101657.22;5074434;28;20465;-77
2022/08/20 02:16:00;;;;;;;9.15;5.40;;;;;;;30.17;42.35;101658.69;5064714;28;20036;-78
2022/08/20 02:18:26;;;;;;;12.70;6.43;;;;;;;30.49;41.15;101667.84;5053347;28;20049;-77
2022/08/20 02:20:51;;;;;;;7.43;4.75;;;;;;;30.25;41.29;101656.22;5058237;28;20028;-78
2022/08/20 02:23:17;;;;;;;10.45;4.40;;;;;;;30.27;41.79;101654.25;5069555;28;20388;-78
2022/08/20 02:25:46;;;;;;;13.85;4.88;;;;;;;30.22;41.37;101656.47;5035960;28;20021;-78
2022/08/20 02:28:15;;;;;;;12.68;5.28;;;;;;;30.43;41.26;101653.00;5071426;28;20370;-77
2022/08/20 02:30:45;;;;;;;12.25;5.10;;;;;;;30.24;41.45;101649.13;5067140;28;20109;-78
2022/08/20 02:33:14;;;;;;;13.75;5.47;;;;;;;30.35;41.46;101656.34;5036080;28;20119;-78
2022/08/20 02:35:42;;;;;;;8.88;4.70;;;;;;;30.22;41.75;101653.75;5035707;28;20366;-77
2022/08/20 02:38:09;;;;;;;8.50;4.85;;;;;;;30.08;41.86;101654.03;5072015;28;20036;-77
2022/08/20 02:40:35;;;;;;;11.95;5.25;;;;;;;30.21;41.35;101651.19;5070878;28;20056;-77
2022/08/20 02:43:03;;;;;;;15.32;5.47;;;;;;;30.48;41.15;101649.97;5061499;28;20121;-77
2022/08/20 02:45:34;;;;;;;10.23;4.90;;;;;;;30.10;42.03;101661.03;5074968;28;20103;-78
2022/08/20 02:48:00;;;;;;;12.90;6.10;;;;;;;30.08;41.51;101662.13;5063487;28;20392;-77
2022/08/20 02:50:26;;;;;;;11.15;5.82;;;;;;;30.21;41.92;101652.06;5055339;28;20029;-77
2022/08/20 02:52:52;;;;;;;11.57;6.72;;;;;;;29.99;41.86;101666.38;5054650;28;20093;-77
2022/08/20 02:55:19;;;;;;;11.07;5.82;;;;;;;29.60;42.46;101657.75;5054863;28;20032;-77
2022/08/20 02:57:44;;;;;;;9.90;5.43;;;;;;;29.82;42.12;101659.63;5072355;28;20496;-78
2022/08/20 03:00:17;;;;;;;9.10;5.10;;;;;;;30.11;41.08;101654.63;5054760;28;20060;-77
2022/08/20 03:02:44;;;;;;;13.52;5.20;;;;;;;30.19;41.22;101662.09;5069233;28;20035;-77
2022/08/20 03:05:10;;;;;;;9.65;4.97;;;;;;;29.98;41.26;101659.31;5074409;28;20028;-77
2022/08/20 03:07:47;;;;;;;7.15;5.18;;;;;;;29.89;41.62;101671.66;5054595;28;20035;-77
2022/08/20 03:10:13;;;;;;;10.13;5.28;;;;;;;29.90;41.57;101662.59;5068382;28;20039;-77
2022/08/20 03:12:40;;;;;;;13.63;5.28;;;;;;;29.74;41.79;101672.84;5060993;28;20388;-77
2022/08/20 03:15:07;;;;;;;12.07;5.30;;;;;;;29.70;41.81;101664.13;5065906;28;20028;-77
2022/08/20 03:17:33;;;;;;;12.43;5.05;;;;;;;29.48;41.99;101661.41;5091020;28;20119;-77
2022/08/20 03:19:58;;;;;;;11.93;5.20;;;;;;;29.54;42.21;101667.19;5055889;28;20467;-77
2022/08/20 03:22:23;;;;;;;9.18;5.20;;;;;;;29.83;41.54;101666.75;5072902;28;20024;-77
2022/08/20 03:24:49;;;;;;;9.05;5.25;;;;;;;29.49;42.12;101669.38;5054465;28;20120;-77
2022/08/20 03:27:14;;;;;;;8.57;4.85;;;;;;;29.92;41.03;101665.16;5071582;28;20028;-76
2022/08/20 03:29:39;;;;;;;10.73;5.40;;;;;;;30.02;40.70;101668.88;5055679;28;20029;-77
2022/08/20 03:32:05;;;;;;;7.28;4.75;;;;;;;29.89;41.00;101666.25;5054742;28;20059;-77
2022/08/20 03:34:30;;;;;;;7.07;4.82;;;;;;;29.87;40.68;101668.25;5060449;28;20056;-77
2022/08/20 03:36:56;;;;;;;10.02;4.35;;;;;;;29.48;41.92;101673.03;5071537;28;20035;-77
2022/08/20 03:39:21;;;;;;;8.07;5.32;;;;;;;29.12;42.62;101672.16;5054707;28;20028;-77
2022/08/20 03:41:47;;;;;;;9.88;4.65;;;;;;;29.11;42.71;101671.31;5069372;28;20032;-77
2022/08/20 03:44:12;;;;;;;10.90;4.70;;;;;;;29.07;42.51;101675.22;5044522;28;20502;-77
2022/08/20 03:46:38;;;;;;;8.68;4.65;;;;;;;28.94;42.77;101659.13;5034490;28;20029;-77
2022/08/20 03:49:04;;;;;;;7.50;4.88;;;;;;;28.92;42.70;101665.59;5052023;28;20025;-77
2022/08/20 03:51:31;;;;;;;7.38;4.72;;;;;;;29.25;42.35;101667.59;5052234;28;20029;-77
2022/08/20 03:53:57;;;;;;;6.78;4.55;;;;;;;29.18;42.01;101676.22;5050507;28;20092;-77
2022/08/20 03:56:22;;;;;;;6.57;3.92;;;;;;;29.11;42.28;101674.00;5053071;28;20020;-77
2022/08/20 03:58:47;;;;;;;12.95;4.72;;;;;;;29.29;41.72;101668.19;5045638;28;20369;-77
2022/08/20 04:01:13;;;;;;;10.20;4.60;;;;;;;29.12;42.19;101666.78;5062985;28;20058;-77
2022/08/20 04:03:38;;;;;;;7.25;4.38;;;;;;;29.08;42.32;101665.28;5055642;28;20469;-77
2022/08/20 04:06:04;;;;;;;9.43;4.97;;;;;;;29.08;42.56;101667.97;5035414;28;20049;-77
2022/08/20 04:08:29;;;;;;;8.70;4.28;;;;;;;29.41;41.70;101669.09;5054398;28;20523;-77
2022/08/20 04:10:56;;;;;;;11.48;5.10;;;;;;;29.50;41.10;101665.72;5053818;28;20058;-77
2022/08/20 04:13:23;;;;;;;7.95;4.60;;;;;;;29.26;41.44;101679.22;5059612;28;20025;-77
2022/08/20 04:15:48;;;;;;;7.53;4.50;;;;;;;29.06;41.89;101673.47;5037132;28;20064;-77
2022/08/20 04:18:19;;;;;;;8.02;4.57;;;;;;;28.82;42.93;101673.47;5036014;28;20557;-77
2022/08/20 04:20:45;;;;;;;8.55;4.75;;;;;;;28.85;42.42;101675.97;5054456;28;20050;-77
2022/08/20 04:23:12;;;;;;;9.30;4.82;;;;;;;28.67;43.10;101685.38;5052373;28;20036;-77
2022/08/20 04:25:40;;;;;;;11.10;4.68;;;;;;;29.05;41.80;101685.22;5049768;28;20025;-77
2022/08/20 04:28:07;;;;;;;8.02;4.90;;;;;;;28.87;42.10;101679.38;5033554;28;20115;-77
2022/08/20 04:30:33;;;;;;;10.82;4.95;;;;;;;28.89;42.15;101693.59;5052544;28;20035;-77
2022/08/20 04:32:59;;;;;;;9.20;4.70;;;;;;;28.67;42.40;101682.69;5072231;28;20020;-77
2022/08/20 04:35:25;;;;;;;6.20;4.93;;;;;;;28.91;41.86;101683.56;5054258;28;20387;-77
2022/08/20 04:38:05;;;;;;;16.50;5.13;;;;;;;28.70;42.10;101685.16;5037594;28;20021;-76
2022/08/20 04:43:15;;;;;;;11.52;5.28;;;;;;;28.32;42.97;101688.81;5051782;28;20052;-77
2022/08/20 04:45:41;;;;;;;10.18;5.50;;;;;;;28.16;43.54;101697.94;5033640;28;20025;-77
2022/08/20 04:48:07;;;;;;;12.32;6.13;;;;;;;28.33;42.86;101701.25;5034282;28;20025;-77
2022/08/20 04:50:37;;;;;;;7.07;4.93;;;;;;;28.44;42.52;101704.03;5045056;28;20050;-77
2022/08/20 04:53:05;;;;;;;11.48;6.00;;;;;;;28.04;43.23;101707.75;5050662;28;20028;-77
2022/08/20 04:55:32;;;;;;;7.10;5.13;;;;;;;28.23;42.96;101707.31;5053908;28;20119;-78
2022/08/20 04:58:05;;;;;;;13.23;5.82;;;;;;;28.24;43.09;101714.38;5054197;28;20012;-78
2022/08/20 05:00:31;;;;;;;8.07;5.35;;;;;;;27.90;43.76;101707.81;5069806;28;20468;-77
2022/08/20 05:02:59;;;;;;;6.90;5.05;;;;;;;28.41;41.96;101717.69;5048400;28;20059;-77
2022/08/20 05:05:26;;;;;;;9.02;5.10;;;;;;;28.42;41.72;101714.03;5069780;28;20029;-77
2022/08/20 05:07:52;;;;;;;9.80;5.38;;;;;;;28.39;42.07;101720.47;5038058;28;20064;-77
2022/08/20 05:10:18;;;;;;;12.38;5.45;;;;;;;28.09;42.71;101715.47;5034048;28;20078;-77
2022/08/20 05:12:44;;;;;;;14.48;6.07;;;;;;;28.55;41.70;101716.69;5037722;28;20101;-77
2022/08/20 05:15:11;;;;;;;10.63;5.72;;;;;;;28.03;43.05;101726.66;5051539;28;20025;-77
2022/08/20 05:17:40;;;;;;;8.65;5.18;;;;;;;28.17;42.67;101718.47;5033953;28;20378;-77
2022/08/20 05:20:08;;;;;;;8.77;6.15;;;;;;;27.99;43.53;101725.13;5068757;28;20483;-77
2022/08/20 05:22:34;;;;;;;10.35;6.40;;;;;;;27.57;44.49;101726.16;5047250;28;20032;-77
2022/08/20 05:25:00;;;;;;;13.07;5.13;;;;;;;27.59;44.63;101729.59;5051973;28;20040;-77
2022/08/20 05:27:27;;;;;;;13.80;5.43;;;;;;;28.10;43.23;101723.41;5053967;28;20029;-77
2022/08/20 05:29:54;;;;;;;9.93;6.25;;;;;;;28.33;42.92;101733.50;5037468;28;20111;-77
2022/08/20 05:32:21;;;;;;;9.18;5.60;;;;;;;27.85;44.24;101735.00;5055792;28;20103;-77
2022/08/20 05:34:46;;;;;;;10.00;5.78;;;;;;;27.55;44.86;101732.59;5058468;28;20049;-77
2022/08/20 05:37:12;;;;;;;10.40;6.60;;;;;;;27.82;44.60;101739.72;5047122;28;20433;-77
2022/08/20 05:39:37;;;;;;;13.02;7.18;;;;;;;27.63;44.65;101740.13;5054897;28;20469;-77
2022/08/20 05:42:03;;;;;;;11.02;5.47;;;;;;;27.95;44.14;101737.06;5040134;28;20597;-77
2022/08/20 05:44:28;;;;;;;15.82;5.97;;;;;;;27.98;44.26;101747.59;5056532;28;20537;-77
2022/08/20 05:46:54;;;;;;;12.00;5.75;;;;;;;28.18;43.58;101757.81;5056857;28;20029;-77
2022/08/20 05:49:20;;;;;;;19.52;6.30;;;;;;;27.86;44.51;101751.97;5074611;28;20043;-77
2022/08/20 05:51:46;;;;;;;14.63;6.07;;;;;;;27.84;44.51;101760.13;5061921;28;20056;-77
2022/08/20 05:54:12;;;;;;;11.45;4.93;;;;;;;28.17;43.47;101756.09;5067317;28;20042;-77
2022/08/20 05:56:38;;;;;;;12.73;5.72;;;;;;;28.10;43.72;101754.81;5076319;28;20028;-77
2022/08/20 05:59:05;;;;;;;9.00;4.90;;;;;;;27.98;44.30;101761.00;5063858;28;20399;-77
2022/08/20 06:01:32;;;;;;;8.85;4.90;;;;;;;28.14;43.82;101750.06;5058085;28;20384;-77
2022/08/20 06:06:41;;;;;;;12.85;5.22;;;;;;;27.11;45.42;101760.53;5093973;28;20445;-77
2022/08/20 06:09:06;;;;;;;11.73;5.38;;;;;;;27.55;44.79;101765.66;5094427;28;20027;-77
2022/08/20 06:11:32;;;;;;;8.02;4.80;;;;;;;27.50;44.07;101765.09;5093555;28;20038;-77
2022/08/20 06:13:58;;;;;;;12.73;5.85;;;;;;;27.98;43.64;101761.00;5061485;28;20483;-77
2022/08/20 06:16:23;;;;;;;13.20;4.63;;;;;;;28.36;42.57;101760.19;5070435;28;20028;-77
2022/08/20 06:18:49;;;;;;;13.95;5.20;;;;;;;27.70;43.74;101761.09;5075452;28;20381;-77
2022/08/20 06:21:14;;;;;;;8.25;4.78;;;;;;;28.10;43.23;101750.28;5059525;28;20025;-78
2022/08/20 06:23:41;;;;;;;15.93;4.57;;;;;;;27.92;43.47;101757.78;5056287;28;20048;-77
2022/08/20 06:26:08;;;;;;;12.02;4.82;;;;;;;27.95;42.83;101755.88;5074964;28;20048;-77
2022/08/20 06:28:33;;;;;;;10.35;4.78;;;;;;;28.41;42.15;101748.13;5072384;28;20028;-77
2022/08/20 06:30:59;;;;;;;10.48;3.97;;;;;;;28.16;42.35;101754.38;5056422;28;20033;-77
2022/08/20 06:33:24;;;;;;;14.10;4.35;;;;;;;28.24;41.79;101757.38;5062309;28;20028;-77
2022/08/20 06:35:50;;;;;;;9.63;4.35;;;;;;;28.20;42.06;101755.88;5056286;28;20135;-77
2022/08/20 06:38:15;;;;;;;8.70;4.43;;;;;;;28.68;41.09;101762.41;5053948;28;20056;-77
2022/08/20 06:40:41;;;;;;;11.05;4.60;;;;;;;28.82;40.56;101754.19;5074784;28;20036;-77
2022/08/20 06:43:07;;;;;;;12.18;4.30;;;;;;;28.17;42.08;101756.09;5076654;28;20091;-77
2022/08/20 06:45:34;;;;;;;5.13;3.20;;;;;;;28.39;41.67;101762.66;5052686;28;20056;-78
2022/08/20 06:48:05;;;;;;;11.45;4.28;;;;;;;28.11;41.30;101764.59;5038872;28;20028;-77
2022/08/20 06:50:38;;;;;;;14.93;4.78;;;;;;;28.01;41.07;101774.25;5045004;28;20033;-77
2022/08/20 06:53:05;;;;;;;11.85;3.33;;;;;;;28.90;40.18;101770.63;5043120;28;20076;-77
2022/08/20 06:55:31;;;;;;;9.63;4.90;;;;;;;28.49;40.57;101771.75;5034858;28;20024;-77
2022/08/20 06:58:10;;;;;;;6.88;3.17;;;;;;;28.81;39.54;101771.31;5052592;28;20024;-77
2022/08/20 07:00:37;;;;;;;4.88;3.35;;;;;;;29.31;38.91;101778.47;5053750;28;20033;-77
2022/08/20 07:03:03;;;;;;;8.18;3.30;;;;;;;29.00;38.85;101769.94;5054089;28;20473;-77
2022/08/20 07:05:32;;;;;;;7.22;2.97;;;;;;;29.60;37.14;101768.19;5040661;28;20024;-77
2022/08/20 07:07:58;;;;;;;8.45;3.58;;;;;;;29.17;38.16;101774.94;5035205;28;20036;-77
2022/08/20 07:10:24;;;;;;;7.65;2.75;;;;;;;29.64;36.72;101779.59;5035478;28;20025;-77
2022/08/20 07:12:50;;;;;;;11.50;3.13;;;;;;;29.19;37.17;101774.81;5035959;28;20028;-77
2022/08/20 07:15:18;;;;;;;11.48;3.20;;;;;;;29.31;37.34;101783.88;5034711;28;20028;-77
2022/08/20 07:17:49;;;;;;;11.18;3.15;;;;;;;29.74;35.55;101792.22;5052042;28;20048;-77
2022/08/20 07:20:15;;;;;;;10.57;2.53;;;;;;;31.58;32.56;101784.81;5034257;28;20033;-78
2022/08/20 07:22:41;;;;;;;8.50;2.67;;;;;;;31.24;32.94;101793.03;5052824;28;20048;-78
2022/08/20 07:25:09;;;;;;;10.63;2.45;;;;;;;33.64;30.00;101781.91;5051433;28;20484;-77
2022/08/20 07:27:35;;;;;;;5.88;1.95;;;;;;;34.22;27.81;101790.94;5047037;28;20032;-77
2022/08/20 07:32:45;;;;;;;7.75;1.98;;;;;;;36.80;25.60;101799.41;5066221;28;20170;-78
2022/08/20 07:35:13;;;;;;;9.70;1.92;;;;;;;37.06;25.24;101798.47;5051346;28;20024;-78
2022/08/20 07:37:42;;;;;;;7.82;1.85;;;;;;;35.86;24.18;101796.50;5051944;28;20032;-78
2022/08/20 07:40:11;;;;;;;9.15;2.08;;;;;;;36.60;23.42;101805.09;5054107;28;20113;-78
2022/08/20 07:42:39;;;;;;;11.20;2.58;;;;;;;37.24;24.21;101801.88;5050400;28;20048;-78
2022/08/20 07:45:07;;;;;;;9.82;1.85;;;;;;;37.63;23.89;101806.69;5074486;28;20526;-78
2022/08/20 07:47:34;;;;;;;8.63;2.08;;;;;;;37.85;21.25;101798.84;5078965;28;20024;-78
2022/08/20 07:50:00;;;;;;;8.60;1.60;;;;;;;37.64;21.33;101797.47;5076659;28;20468;-78
2022/08/20 07:52:25;;;;;;;5.93;1.50;;;;;;;38.13;23.26;101798.47;5066765;28;20034;-78
2022/08/20 07:54:51;;;;;;;8.57;1.65;;;;;;;37.61;20.99;101802.44;5054227;28;20036;-78
2022/08/20 07:57:17;;;;;;;10.55;1.80;;;;;;;38.32;21.37;101800.81;5053036;28;20506;-78
2022/08/20 07:59:43;;;;;;;6.10;1.42;;;;;;;39.48;20.11;101803.75;5052772;28;20043;-77
2022/08/20 08:02:09;;;;;;;6.72;1.70;;;;;;;39.13;19.25;101814.25;5072815;28;20030;-77
2022/08/20 08:04:37;;;;;;;7.20;1.63;;;;;;;39.63;19.13;101822.13;5089112;28;20020;-77
2022/08/20 08:07:03;;;;;;;7.13;1.50;;;;;;;38.83;19.18;101813.25;5062455;28;20115;-78
2022/08/20 08:09:29;;;;;;;5.55;1.45;;;;;;;36.94;20.37;101822.44;5067007;28;20024;-78
2022/08/20 08:11:57;;;;;;;6.85;1.70;;;;;;;39.59;17.35;101818.88;5060349;28;20499;-78
2022/08/20 08:14:28;;;;;;;8.38;1.60;;;;;;;39.84;18.64;101816.78;5054401;28;20048;-78
2022/08/20 08:16:56;;;;;;;10.25;1.90;;;;;;;36.45;19.97;101813.03;5059946;28;20028;-78
2022/08/20 08:19:23;;;;;;;8.35;1.35;;;;;;;37.90;19.67;101818.28;5061681;28;20127;-78
2022/08/20 08:21:48;;;;;;;7.90;1.88;;;;;;;38.92;17.87;101817.63;5075063;28;20031;-78
2022/08/20 08:24:14;;;;;;;8.98;2.22;;;;;;;40.14;17.82;101819.56;5063263;28;21373;-77
2022/08/20 08:26:39;;;;;;;7.70;1.70;;;;;;;38.73;17.49;101824.38;5059012;28;20579;-77
2022/08/20 08:29:06;;;;;;;8.27;2.38;;;;;;;36.24;20.56;101821.53;5085461;28;20032;-77
2022/08/20 08:31:32;;;;;;;6.22;1.73;;;;;;;38.88;18.97;101824.47;5073124;28;20028;-77
2022/08/20 08:33:58;;;;;;;6.22;1.58;;;;;;;38.29;18.50;101822.13;5074029;28;20028;-78
2022/08/20 08:36:26;;;;;;;9.43;1.65;;;;;;;37.42;19.01;101815.38;5073263;28;20028;-77
2022/08/20 08:38:52;;;;;;;4.32;1.15;;;;;;;37.32;19.59;101817.44;5091955;28;20035;-78
2022/08/20 08:41:46;;;;;;;7.95;1.83;;;;;;;38.73;19.25;101829.00;5073739;28;20030;-76
2022/08/20 08:44:21;;;;;;;9.40;1.63;;;;;;;38.13;18.35;101823.88;5073155;28;20480;-77
2022/08/20 08:46:50;;;;;;;7.75;1.95;;;;;;;36.67;19.75;101829.78;5073701;28;20459;-77
2022/08/20 08:49:21;;;;;;;5.47;1.52;;;;;;;35.87;18.75;101819.09;5074094;28;20484;-77
2022/08/20 08:51:59;;;;;;;10.30;1.70;;;;;;;34.36;20.63;101829.47;5091521;28;20039;-77
2022/08/20 08:54:30;;;;;;;6.25;1.40;;;;;;;36.03;20.87;101818.38;5091673;28;20020;-77
2022/08/20 08:56:57;;;;;;;5.03;1.60;;;;;;;36.33;20.69;101826.06;5091504;28;20020;-77
2022/08/20 08:59:23;;;;;;;6.75;2.22;;;;;;;38.48;19.86;101829.06;5073108;28;20067;-77
2022/08/20 09:01:53;;;;;;;6.45;1.75;;;;;;;37.22;19.92;101830.31;5075944;28;20020;-77
2022/08/20 09:04:21;;;;;;;7.95;2.28;;;;;;;38.36;18.85;101828.59;5095811;28;20024;-77
2022/08/20 09:06:48;;;;;;;5.90;1.50;;;;;;;37.41;19.22;101837.34;5094765;28;20028;-77
2022/08/20 09:09:35;;;;;;;4.88;1.48;;;;;;;36.51;19.51;101833.31;5095662;28;20023;-77
2022/08/20 09:12:17;;;;;;;10.30;2.20;;;;;;;38.76;17.64;101829.50;5076729;28;20024;-78
2022/08/20 09:14:45;;;;;;;3.55;1.65;;;;;;;38.35;17.77;101835.09;5077643;28;20032;-77
2022/08/20 09:17:10;;;;;;;6.80;1.65;;;;;;;36.95;18.16;101832.31;5095832;28;20073;-78
2022/08/20 09:19:35;;;;;;;6.32;1.45;;;;;;;39.69;18.17;101830.44;5094716;28;20020;-77
2022/08/20 09:22:10;;;;;;;10.40;1.85;;;;;;;38.49;17.24;101836.25;5077133;28;20028;-78
2022/08/20 09:24:36;;;;;;;6.03;1.63;;;;;;;38.29;17.41;101828.47;5095365;28;20094;-77
2022/08/20 09:27:01;;;;;;;4.75;1.65;;;;;;;36.73;18.73;101831.00;5076387;28;20043;-77
2022/08/20 09:29:28;;;;;;;4.53;1.48;;;;;;;37.09;18.48;101826.19;5077200;28;20451;-77
2022/08/20 09:32:13;;;;;;;8.30;1.67;;;;;;;37.38;18.25;101824.06;5076887;28;20561;-77
2022/08/20 09:34:44;;;;;;;9.38;2.15;;;;;;;36.25;19.48;101822.41;5094141;28;20065;-77
2022/08/20 09:37:10;;;;;;;7.15;1.58;;;;;;;34.93;21.00;101834.81;5076830;28;20020;-77
2022/08/20 09:39:35;;;;;;;6.30;1.60;;;;;;;35.08;20.75;101829.72;5095277;28;20046;-77
2022/08/20 09:42:14;;;;;;;6.25;1.90;;;;;;;35.32;21.06;101831.84;5090520;28;20492;-77
2022/08/20 09:44:39;;;;;;;5.68;1.88;;;;;;;36.22;19.66;101815.44;5074511;28;20035;-78
2022/08/20 09:47:05;;;;;;;7.20;1.60;;;;;;;37.17;19.51;101822.66;5056335;28;20028;-77
2022/08/20 09:49:31;;;;;;;9.93;2.08;;;;;;;35.83;20.75;101813.13;5056772;28;20021;-78
2022/08/20 09:52:00;;;;;;;11.60;3.92;;;;;;;35.83;21.32;101829.44;5056803;28;20028;-77
2022/08/20 09:54:28;;;;;;;7.10;1.70;;;;;;;36.32;22.01;101816.19;5055860;28;20047;-78
2022/08/20 09:56:56;;;;;;;6.28;1.70;;;;;;;36.50;20.97;101804.38;5056325;28;20059;-77
2022/08/20 09:59:22;;;;;;;12.48;1.90;;;;;;;34.96;22.05;101815.50;5056623;28;20033;-78
2022/08/20 10:01:48;;;;;;;10.98;1.63;;;;;;;35.66;22.43;101809.41;5055836;28;20029;-77
2022/08/20 10:04:13;;;;;;;6.30;1.63;;;;;;;35.29;22.39;101799.53;5056400;28;20383;-77
2022/08/20 10:06:40;;;;;;;7.55;1.80;;;;;;;36.18;22.57;101795.84;5056068;28;20017;-77
2022/08/20 10:09:05;;;;;;;8.95;1.98;;;;;;;35.83;22.91;101802.25;5073642;28;20059;-77
2022/08/20 10:11:31;;;;;;;5.88;1.58;;;;;;;35.10;21.87;101812.25;5056259;28;20063;-77
2022/08/20 10:13:56;;;;;;;7.95;2.40;;;;;;;35.32;21.61;101805.56;5056243;28;20012;-77
2022/08/20 10:16:22;;;;;;;9.07;2.08;;;;;;;34.64;22.18;101816.78;5073261;28;20473;-77
2022/08/20 10:18:48;;;;;;;13.85;1.77;;;;;;;37.06;20.67;101803.91;5056398;28;20067;-77
2022/08/20 10:21:15;;;;;;;9.27;2.17;;;;;;;35.59;21.49;101811.91;5074244;28;20028;-77
2022/08/20 10:23:40;;;;;;;5.88;1.63;;;;;;;33.94;22.84;101804.44;5055624;28;20035;-77
2022/08/20 10:26:07;;;;;;;8.13;1.77;;;;;;;33.20;24.48;101805.81;5055720;28;20021;-77
2022/08/20 10:28:33;;;;;;;9.13;2.28;;;;;;;32.87;24.89;101809.78;5073921;28;20115;-77
2022/08/20 10:30:59;;;;;;;6.07;1.70;;;;;;;33.70;23.33;101812.97;5073160;28;20059;-77
2022/08/20 10:33:24;;;;;;;7.22;1.88;;;;;;;34.18;22.97;101813.09;5055915;28;20453;-77
2022/08/20 10:35:50;;;;;;;9.57;1.65;;;;;;;33.40;23.60;101800.44;5055958;28;20024;-77
2022/08/20 10:38:15;;;;;;;7.30;1.80;;;;;;;30.82;27.19;101818.00;5054919;28;20439;-77
2022/08/20 10:40:40;;;;;;;11.05;1.90;;;;;;;31.56;27.51;101809.25;5055883;28;20510;-77
2022/08/20 10:43:06;;;;;;;8.80;2.40;;;;;;;31.38;27.18;101805.38;5067521;28;20059;-77
2022/08/20 10:45:31;;;;;;;8.88;1.70;;;;;;;32.69;25.27;101806.84;5075881;28;20042;-78
2022/08/20 10:48:00;;;;;;;6.13;1.73;;;;;;;33.47;25.22;101807.03;5076018;28;20024;-77
2022/08/20 10:50:26;;;;;;;8.27;1.60;;;;;;;34.07;24.24;101798.69;5075262;28;20488;-77
2022/08/20 10:52:52;;;;;;;9.98;1.88;;;;;;;34.61;24.26;101801.66;5075559;28;20028;-78
2022/08/20 10:55:17;;;;;;;11.15;1.50;;;;;;;34.70;23.82;101808.03;5075812;28;20077;-77
2022/08/20 10:57:43;;;;;;;7.90;1.58;;;;;;;33.37;24.59;101801.59;5074993;28;20020;-78
2022/08/20 11:00:11;;;;;;;9.85;1.33;;;;;;;34.82;22.33;101803.28;5075717;28;20392;-77
2022/08/20 11:02:36;;;;;;;6.95;1.70;;;;;;;31.94;25.59;101807.88;5093532;28;20103;-78
2022/08/20 11:05:04;;;;;;;11.48;2.03;;;;;;;33.41;24.69;101813.00;5074735;28;20623;-77
2022/08/20 11:07:33;;;;;;;7.10;2.00;;;;;;;34.30;23.89;101811.94;5075382;28;20024;-77
2022/08/20 11:09:59;;;;;;;6.35;2.17;;;;;;;35.84;22.32;101806.69;5075355;28;20031;-77
2022/08/20 11:12:25;;;;;;;5.70;1.42;;;;;;;35.67;22.21;101809.25;5074468;28;20024;-77
2022/08/20 11:14:51;;;;;;;8.82;1.80;;;;;;;33.12;25.24;101803.81;5075461;28;20475;-77
2022/08/20 11:17:25;;;;;;;9.77;2.08;;;;;;;33.59;24.17;101805.88;5074894;28;20024;-77
2022/08/20 11:19:51;;;;;;;4.43;1.48;;;;;;;34.26;24.36;101814.03;5092783;28;20031;-77
2022/08/20 11:22:17;;;;;;;10.95;2.10;;;;;;;33.55;25.32;101811.72;5093304;28;20130;-77
2022/08/20 11:24:43;;;;;;;6.85;1.60;;;;;;;33.52;24.43;101810.16;5092583;28;20043;-77
2022/08/20 11:27:09;;;;;;;4.97;1.52;;;;;;;34.99;22.82;101807.91;5092658;28;20016;-77
2022/08/20 11:29:36;;;;;;;9.27;1.65;;;;;;;33.51;24.49;101808.47;5093144;28;20590;-77
2022/08/20 11:32:01;;;;;;;4.47;1.27;;;;;;;32.94;24.64;101800.94;5074973;28;20035;-77
2022/08/20 11:34:27;;;;;;;9.57;1.65;;;;;;;33.25;24.36;101803.59;5092159;28;20024;-77